Time;durP1;ratioP1;P1;durP2;ratioP2;P2;SDS_P1;SDS_P2;PMS_P1;PMS_P2;Temp;Humidity;BMP_temperature;BMP_pressure;BME280_temperature;BME280_humidity;BME280_pressure;Samples;Min_cycle;Max_cycle;Signal;HPM_P1;HPM_P2
2023/06/30 00:01:52;;;;;;;1999.90;999.90;;;16.90;99.90;;;;;;5100460;28;20234;-68
2023/06/30 00:04:19;;;;;;;1999.90;999.90;;;16.80;99.90;;;;;;5097378;28;20218;-68
2023/06/30 00:06:46;;;;;;;1999.90;999.90;;;16.70;99.90;;;;;;5099001;28;20428;-68
2023/06/30 00:09:11;;;;;;;1999.90;999.90;;;16.70;99.90;;;;;;5095178;28;20412;-68
2023/06/30 00:11:38;;;;;;;1999.90;999.90;;;16.70;99.90;;;;;;5092260;28;20455;-68
2023/06/30 00:14:04;;;;;;;1999.90;999.90;;;16.60;99.90;;;;;;5092154;28;20175;-68
2023/06/30 00:16:31;;;;;;;1999.90;999.90;;;16.50;99.90;;;;;;5091988;28;20482;-68
2023/06/30 00:18:57;;;;;;;1999.90;999.90;;;16.40;99.90;;;;;;5092085;28;20248;-68
2023/06/30 00:21:23;;;;;;;1999.90;999.90;;;16.50;99.90;;;;;;5091851;28;20405;-68
2023/06/30 00:23:49;;;;;;;1999.90;999.90;;;16.40;99.90;;;;;;5092263;28;20395;-68
2023/06/30 00:26:15;;;;;;;1999.90;999.90;;;16.30;99.90;;;;;;5091943;28;20424;-68
2023/06/30 00:28:40;;;;;;;1999.90;999.90;;;16.30;99.90;;;;;;5092228;28;20248;-68
2023/06/30 00:31:06;;;;;;;1999.90;999.90;;;16.30;99.90;;;;;;5091789;28;20236;-68
2023/06/30 00:33:31;;;;;;;1999.90;999.90;;;16.30;99.90;;;;;;5091901;28;20199;-68
2023/06/30 00:35:57;;;;;;;1999.90;999.90;;;16.40;99.90;;;;;;5091851;28;20188;-68
2023/06/30 00:38:23;;;;;;;1999.90;999.90;;;16.30;99.90;;;;;;5091761;28;20173;-68
2023/06/30 00:40:48;;;;;;;1999.90;999.90;;;16.40;99.90;;;;;;5091858;28;20170;-68
2023/06/30 00:43:14;;;;;;;1999.90;999.90;;;16.50;99.90;;;;;;5091801;28;20635;-68
2023/06/30 00:45:39;;;;;;;1999.90;999.90;;;16.50;99.90;;;;;;5091761;28;20220;-68
2023/06/30 00:48:06;;;;;;;1999.90;999.90;;;16.50;99.90;;;;;;5092095;28;20679;-68
2023/06/30 00:50:32;;;;;;;1999.90;999.90;;;16.50;99.90;;;;;;5091788;28;20241;-68
2023/06/30 00:52:58;;;;;;;1999.90;999.90;;;16.40;99.90;;;;;;5092093;28;20452;-68
2023/06/30 00:55:25;;;;;;;1999.90;999.90;;;16.40;99.90;;;;;;5092536;28;21068;-69
2023/06/30 00:57:51;;;;;;;1999.90;999.90;;;16.50;99.90;;;;;;5093120;28;20422;-68
2023/06/30 01:00:17;;;;;;;1999.90;999.90;;;16.50;99.90;;;;;;5092664;28;20771;-68
2023/06/30 01:03:09;;;;;;;1999.90;999.90;;;16.30;99.90;;;;;;5092117;28;20578;-68
2023/06/30 01:05:59;;;;;;;1999.90;999.90;;;16.10;99.90;;;;;;5091686;28;20486;-68
2023/06/30 01:08:41;;;;;;;1999.90;999.90;;;16.00;99.90;;;;;;5091677;28;20404;-68
2023/06/30 01:11:08;;;;;;;1999.90;999.90;;;16.00;99.90;;;;;;5091741;28;20475;-68
2023/06/30 01:13:34;;;;;;;1999.90;999.90;;;15.90;99.90;;;;;;5091821;28;20458;-68
2023/06/30 01:16:00;;;;;;;1999.90;999.90;;;15.90;99.90;;;;;;5093210;28;20428;-68
2023/06/30 01:18:32;;;;;;;1999.90;999.90;;;15.90;99.90;;;;;;5095875;28;20413;-68
2023/06/30 01:20:59;;;;;;;1999.90;999.90;;;16.00;99.90;;;;;;5095629;28;20803;-68
2023/06/30 01:23:34;;;;;;;1999.90;999.90;;;16.00;99.90;;;;;;5097864;28;20456;-69
2023/06/30 01:26:02;;;;;;;1999.90;999.90;;;16.10;99.90;;;;;;5097446;28;21004;-68
2023/06/30 01:28:29;;;;;;;1999.90;999.90;;;16.20;99.90;;;;;;5096385;28;20455;-69
2023/06/30 01:30:56;;;;;;;1999.90;999.90;;;16.20;99.90;;;;;;5097535;28;20417;-68
2023/06/30 01:33:22;;;;;;;1999.90;999.90;;;16.20;99.90;;;;;;5097405;28;20456;-68
2023/06/30 01:35:48;;;;;;;1999.90;999.90;;;16.20;99.90;;;;;;5096980;28;20473;-68
2023/06/30 01:38:13;;;;;;;1999.90;999.90;;;16.20;99.90;;;;;;5098119;28;20867;-68
2023/06/30 01:40:39;;;;;;;1999.90;999.90;;;16.00;99.90;;;;;;5099263;28;20426;-69
2023/06/30 01:43:05;;;;;;;1999.90;999.90;;;16.00;99.90;;;;;;5098441;28;20171;-68
2023/06/30 01:45:32;;;;;;;1999.90;999.90;;;16.00;99.90;;;;;;5098745;28;20189;-68
2023/06/30 01:47:59;;;;;;;1999.90;999.90;;;16.10;99.90;;;;;;5098932;28;21023;-69
2023/06/30 01:50:29;;;;;;;1999.90;999.90;;;16.00;99.90;;;;;;5100543;28;20412;-69
2023/06/30 01:52:56;;;;;;;1999.90;999.90;;;16.10;99.90;;;;;;5100109;28;20803;-68
2023/06/30 01:55:22;;;;;;;1999.90;999.90;;;16.00;99.90;;;;;;5099298;28;20494;-69
2023/06/30 01:57:47;;;;;;;1999.90;999.90;;;16.00;99.90;;;;;;5099751;28;20505;-69
2023/06/30 02:00:13;;;;;;;1999.90;999.90;;;16.10;99.90;;;;;;5098318;28;20789;-69
2023/06/30 02:02:40;;;;;;;1999.90;999.90;;;16.10;99.90;;;;;;5098183;28;20312;-69
2023/06/30 02:05:06;;;;;;;1999.90;999.90;;;16.10;99.90;;;;;;5097140;28;20422;-69
2023/06/30 02:07:31;;;;;;;1999.90;999.90;;;16.20;99.90;;;;;;5096300;28;20407;-69
2023/06/30 02:09:57;;;;;;;1999.90;999.90;;;16.30;99.90;;;;;;5095813;28;20554;-69
2023/06/30 02:12:23;;;;;;;1999.90;999.90;;;16.40;99.90;;;;;;5097631;28;20189;-68
2023/06/30 02:14:48;;;;;;;1999.90;999.90;;;16.30;99.90;;;;;;5098334;28;20580;-69
2023/06/30 02:17:14;;;;;;;1999.90;999.90;;;16.40;99.90;;;;;;5098528;28;20274;-69
2023/06/30 02:19:40;;;;;;;1999.90;999.90;;;16.40;99.90;;;;;;5098791;28;20431;-69
2023/06/30 02:22:05;;;;;;;1999.90;999.90;;;16.40;99.90;;;;;;5097619;28;20190;-69
2023/06/30 02:24:31;;;;;;;1999.90;999.90;;;16.30;99.90;;;;;;5097099;28;20172;-68
2023/06/30 02:26:56;;;;;;;1999.90;999.90;;;16.30;99.90;;;;;;5095409;28;20186;-69
2023/06/30 02:29:22;;;;;;;1999.90;999.90;;;16.30;99.90;;;;;;5098287;28;20222;-69
2023/06/30 02:31:48;;;;;;;1999.90;999.90;;;16.30;99.90;;;;;;5098738;28;20201;-69
2023/06/30 02:34:14;;;;;;;1999.90;999.90;;;16.30;99.90;;;;;;5099652;28;20890;-68
2023/06/30 02:36:39;;;;;;;1999.90;999.90;;;16.30;99.90;;;;;;5099888;28;20195;-68
2023/06/30 02:39:05;;;;;;;1999.90;999.90;;;16.30;99.90;;;;;;5099887;28;20180;-68
2023/06/30 02:41:30;;;;;;;1999.90;999.90;;;16.30;99.90;;;;;;5099890;28;20176;-68
2023/06/30 02:43:57;;;;;;;1999.90;999.90;;;16.30;99.90;;;;;;5099854;28;20555;-69
2023/06/30 02:46:22;;;;;;;1999.90;999.90;;;16.20;99.90;;;;;;5100139;28;20214;-69
2023/06/30 02:48:48;;;;;;;1999.90;999.90;;;16.20;99.90;;;;;;5100252;28;20408;-68
2023/06/30 02:51:14;;;;;;;1999.90;999.90;;;16.20;99.90;;;;;;5098981;28;20164;-68
2023/06/30 02:53:39;;;;;;;1999.90;999.90;;;16.20;99.90;;;;;;5099727;28;20465;-68
2023/06/30 02:56:05;;;;;;;1999.90;999.90;;;16.20;99.90;;;;;;5099531;28;20297;-69
2023/06/30 02:58:30;;;;;;;1999.90;999.90;;;16.20;99.90;;;;;;5099744;28;20173;-68
2023/06/30 03:00:56;;;;;;;1999.90;999.90;;;16.20;99.90;;;;;;5098611;28;20223;-68
2023/06/30 03:03:22;;;;;;;1999.90;999.90;;;16.10;99.90;;;;;;5099096;28;20188;-69
2023/06/30 03:05:47;;;;;;;1999.90;999.90;;;16.10;99.90;;;;;;5099178;28;20207;-69
2023/06/30 03:08:13;;;;;;;1999.90;999.90;;;16.10;99.90;;;;;;5099161;28;20196;-68
2023/06/30 03:10:39;;;;;;;1999.90;999.90;;;16.10;99.90;;;;;;5099690;28;20549;-69
2023/06/30 03:13:04;;;;;;;1999.90;999.90;;;16.10;99.90;;;;;;5099735;28;20204;-69
2023/06/30 03:15:30;;;;;;;1999.90;999.90;;;16.10;99.90;;;;;;5098137;28;20227;-69
2023/06/30 03:17:55;;;;;;;1999.90;999.90;;;16.00;99.90;;;;;;5098160;28;20187;-68
2023/06/30 03:20:21;;;;;;;1999.90;999.90;;;16.00;99.90;;;;;;5098157;28;20174;-68
2023/06/30 03:22:47;;;;;;;1999.90;999.90;;;15.90;99.90;;;;;;5097930;28;20191;-68
2023/06/30 03:25:13;;;;;;;1999.90;999.90;;;15.90;99.90;;;;;;5098048;28;20431;-68
2023/06/30 03:27:38;;;;;;;1999.90;999.90;;;15.90;99.90;;;;;;5098157;28;20179;-69
2023/06/30 03:30:05;;;;;;;1999.90;999.90;;;15.90;99.90;;;;;;5094403;28;20211;-68
2023/06/30 03:32:31;;;;;;;1999.90;999.90;;;15.90;99.90;;;;;;5092468;28;20197;-68
2023/06/30 03:34:56;;;;;;;1999.90;999.90;;;15.90;99.90;;;;;;5092463;28;20408;-68
2023/06/30 03:37:22;;;;;;;1999.90;999.90;;;15.90;99.90;;;;;;5093324;28;20415;-68
2023/06/30 03:39:48;;;;;;;1999.90;999.90;;;16.00;99.90;;;;;;5097743;28;20201;-69
2023/06/30 03:42:13;;;;;;;1999.90;999.90;;;16.00;99.90;;;;;;5098226;28;20177;-68
2023/06/30 03:44:39;;;;;;;1999.90;999.90;;;16.10;99.90;;;;;;5098062;28;20181;-68
2023/06/30 03:47:05;;;;;;;1999.90;999.90;;;16.10;99.90;;;;;;5097727;28;20196;-69
2023/06/30 03:49:30;;;;;;;1999.90;999.90;;;16.10;99.90;;;;;;5097333;28;20170;-68
2023/06/30 03:51:56;;;;;;;1999.90;999.90;;;16.00;99.90;;;;;;5097117;28;20447;-69
2023/06/30 03:54:22;;;;;;;1999.90;999.90;;;16.00;99.90;;;;;;5097604;28;20627;-68
2023/06/30 03:56:47;;;;;;;1999.90;999.90;;;16.00;99.90;;;;;;5097425;28;20200;-69
2023/06/30 03:59:13;;;;;;;1999.90;999.90;;;16.10;99.90;;;;;;5098166;28;20717;-69
2023/06/30 04:01:40;;;;;;;1999.90;999.90;;;16.10;99.90;;;;;;5092902;28;20179;-68
2023/06/30 04:04:06;;;;;;;1999.90;999.90;;;16.10;99.90;;;;;;5092221;28;20793;-68
2023/06/30 04:06:33;;;;;;;1999.90;999.90;;;16.10;99.90;;;;;;5092151;28;20535;-68
2023/06/30 04:08:59;;;;;;;1999.90;999.90;;;16.10;99.90;;;;;;5092150;28;20416;-68
2023/06/30 04:11:25;;;;;;;1999.90;999.90;;;16.10;99.90;;;;;;5091772;28;20412;-67
2023/06/30 04:13:51;;;;;;;1999.90;999.90;;;16.10;99.90;;;;;;5092129;28;20493;-68
2023/06/30 04:16:17;;;;;;;1999.90;999.90;;;16.10;99.90;;;;;;5091991;28;20216;-68
2023/06/30 04:18:43;;;;;;;1999.90;999.90;;;16.10;99.90;;;;;;5092058;28;20160;-68
2023/06/30 04:21:09;;;;;;;1999.90;999.90;;;16.10;99.90;;;;;;5091600;28;20819;-68
2023/06/30 04:23:34;;;;;;;1999.90;999.90;;;16.20;99.90;;;;;;5092026;28;20410;-68
2023/06/30 04:26:00;;;;;;;1999.90;999.90;;;16.20;99.90;;;;;;5091937;28;20233;-68
2023/06/30 04:28:26;;;;;;;1999.90;999.90;;;16.20;99.90;;;;;;5092116;28;20223;-67
2023/06/30 04:30:52;;;;;;;1999.90;999.90;;;16.20;99.90;;;;;;5091890;28;20787;-67
2023/06/30 04:33:17;;;;;;;1999.90;999.90;;;16.20;99.90;;;;;;5091764;28;20552;-68
2023/06/30 04:35:46;;;;;;;1999.90;999.90;;;16.20;99.90;;;;;;5091864;28;20656;-68
2023/06/30 04:38:11;;;;;;;1999.90;999.90;;;16.10;99.90;;;;;;5091899;28;20163;-67
2023/06/30 04:40:37;;;;;;;1999.90;999.90;;;16.10;99.90;;;;;;5091889;28;20528;-68
2023/06/30 04:43:11;;;;;;;1999.90;999.90;;;16.10;99.90;;;;;;5091592;28;20175;-68
2023/06/30 04:45:36;;;;;;;1999.90;999.90;;;16.20;99.90;;;;;;5091776;28;20205;-68
2023/06/30 04:48:02;;;;;;;1999.90;999.90;;;16.20;99.90;;;;;;5091702;28;20406;-68
2023/06/30 04:50:27;;;;;;;1999.90;999.90;;;16.20;99.90;;;;;;5092594;28;20171;-68
2023/06/30 04:52:53;;;;;;;1999.90;999.90;;;16.10;99.90;;;;;;5095416;28;20205;-68
2023/06/30 04:55:19;;;;;;;1999.90;999.90;;;16.10;99.90;;;;;;5095694;28;20189;-68
2023/06/30 04:57:44;;;;;;;1999.90;999.90;;;16.10;99.90;;;;;;5095910;28;20173;-68
2023/06/30 05:00:10;;;;;;;1999.90;999.90;;;16.00;99.90;;;;;;5096067;28;20201;-68
2023/06/30 05:02:36;;;;;;;1999.90;999.90;;;16.10;99.90;;;;;;5095305;28;20180;-68
2023/06/30 05:05:02;;;;;;;1999.90;999.90;;;16.10;99.90;;;;;;5095360;28;20458;-68
2023/06/30 05:07:27;;;;;;;1999.90;999.90;;;16.10;99.90;;;;;;5095670;28;20256;-68
2023/06/30 05:09:53;;;;;;;1999.90;999.90;;;16.10;99.90;;;;;;5095580;28;20195;-68
2023/06/30 05:12:18;;;;;;;1999.90;999.90;;;16.10;99.90;;;;;;5095061;28;20649;-68
2023/06/30 05:14:44;;;;;;;1999.90;999.90;;;16.10;99.90;;;;;;5095364;28;20163;-68
2023/06/30 05:17:10;;;;;;;1999.90;999.90;;;16.00;99.90;;;;;;5095152;28;20234;-68
2023/06/30 05:19:36;;;;;;;1999.90;999.90;;;16.00;99.90;;;;;;5095185;28;20174;-68
2023/06/30 05:22:01;;;;;;;1999.90;999.90;;;16.00;99.90;;;;;;5094814;28;20715;-68
2023/06/30 05:24:27;;;;;;;1999.90;999.90;;;16.00;99.90;;;;;;5095366;28;20439;-68
2023/06/30 05:26:54;;;;;;;1999.90;999.90;;;15.90;99.90;;;;;;5095094;28;20193;-68
2023/06/30 05:29:20;;;;;;;1999.90;999.90;;;15.90;99.90;;;;;;5095234;28;20177;-68
2023/06/30 05:31:45;;;;;;;1999.90;999.90;;;15.80;99.90;;;;;;5094643;28;20447;-68
2023/06/30 05:34:15;;;;;;;1999.90;999.90;;;15.70;99.90;;;;;;5094955;28;20966;-68
2023/06/30 05:36:43;;;;;;;1999.90;999.90;;;15.80;99.90;;;;;;5095071;28;20272;-68
2023/06/30 05:39:09;;;;;;;1999.90;999.90;;;15.90;99.90;;;;;;5094951;28;20403;-68
2023/06/30 05:41:35;;;;;;;1999.90;999.90;;;15.90;99.90;;;;;;5094536;28;20401;-68
2023/06/30 05:44:00;;;;;;;1999.90;999.90;;;15.90;99.90;;;;;;5094771;28;20421;-68
2023/06/30 05:46:26;;;;;;;1999.90;999.90;;;15.80;99.90;;;;;;5094649;28;20243;-68
2023/06/30 05:48:52;;;;;;;1999.90;999.90;;;15.80;99.90;;;;;;5094761;28;20165;-68
2023/06/30 05:51:17;;;;;;;1999.90;999.90;;;15.80;99.90;;;;;;5094378;28;20174;-68
2023/06/30 05:53:43;;;;;;;1999.90;999.90;;;15.80;99.90;;;;;;5094814;28;20299;-69
2023/06/30 05:56:08;;;;;;;1999.90;999.90;;;15.90;99.90;;;;;;5095283;28;20556;-69
2023/06/30 05:58:37;;;;;;;1999.90;999.90;;;16.10;99.90;;;;;;5095819;28;20170;-69
2023/06/30 06:01:03;;;;;;;1999.90;999.90;;;16.10;99.90;;;;;;5094935;28;20230;-69
2023/06/30 06:03:30;;;;;;;1999.90;999.90;;;16.10;99.90;;;;;;5095333;28;20404;-69
2023/06/30 06:05:56;;;;;;;1999.90;999.90;;;16.20;99.90;;;;;;5094826;28;20189;-68
2023/06/30 06:08:22;;;;;;;1999.90;999.90;;;16.00;99.90;;;;;;5094360;28;20482;-68
2023/06/30 06:10:48;;;;;;;1999.90;999.90;;;15.90;99.90;;;;;;5094302;28;20464;-68
2023/06/30 06:13:36;;;;;;;1999.90;999.90;;;16.00;99.90;;;;;;5094186;28;21019;-68
2023/06/30 06:16:03;;;;;;;1999.90;999.90;;;16.00;99.90;;;;;;5094008;28;20203;-68
2023/06/30 06:18:29;;;;;;;1999.90;999.90;;;16.00;99.90;;;;;;5094218;28;20401;-68
2023/06/30 06:20:56;;;;;;;1999.90;999.90;;;16.00;99.90;;;;;;5094019;28;20400;-68
2023/06/30 06:23:21;;;;;;;1999.90;999.90;;;16.00;99.90;;;;;;5093968;28;20193;-68
2023/06/30 06:25:48;;;;;;;1999.90;999.90;;;16.10;99.90;;;;;;5093957;28;20560;-68
2023/06/30 06:28:13;;;;;;;1999.90;999.90;;;16.10;99.90;;;;;;5093889;28;20215;-68
2023/06/30 06:30:39;;;;;;;1999.90;999.90;;;16.10;99.90;;;;;;5093801;28;20838;-68
2023/06/30 06:33:05;;;;;;;1999.90;999.90;;;16.10;99.90;;;;;;5093698;28;20203;-69
2023/06/30 06:35:30;;;;;;;1999.90;999.90;;;15.90;99.90;;;;;;5093861;28;20641;-69
2023/06/30 06:37:56;;;;;;;1999.90;999.90;;;15.90;99.90;;;;;;5093809;28;20164;-69
2023/06/30 06:40:21;;;;;;;1999.90;999.90;;;15.80;99.90;;;;;;5097000;28;20166;-68
2023/06/30 06:42:47;;;;;;;1999.90;999.90;;;15.90;99.90;;;;;;5094681;28;20253;-69
2023/06/30 06:45:13;;;;;;;1999.90;999.90;;;16.00;99.90;;;;;;5095921;28;20672;-68
2023/06/30 06:48:16;;;;;;;1999.90;999.90;;;16.10;99.90;;;;;;5095160;28;20166;-67
2023/06/30 06:50:42;;;;;;;1999.90;999.90;;;16.20;99.90;;;;;;5096878;28;20190;-69
2023/06/30 06:53:08;;;;;;;1999.90;999.90;;;16.20;99.90;;;;;;5095510;28;20509;-69
2023/06/30 06:55:33;;;;;;;1999.90;999.90;;;16.20;99.90;;;;;;5095236;28;20507;-69
2023/06/30 06:57:59;;;;;;;1999.90;999.90;;;16.20;99.90;;;;;;5095315;28;20401;-68
2023/06/30 07:00:24;;;;;;;1999.90;999.90;;;16.20;99.90;;;;;;5094735;28;20654;-68
2023/06/30 07:02:51;;;;;;;1999.90;999.90;;;16.30;99.90;;;;;;5093719;28;20243;-69
2023/06/30 07:05:17;;;;;;;1999.90;999.90;;;16.40;99.90;;;;;;5093763;28;20743;-69
2023/06/30 07:07:42;;;;;;;1999.90;999.90;;;16.40;99.90;;;;;;5094240;28;20439;-69
2023/06/30 07:10:08;;;;;;;1999.90;999.90;;;16.30;99.90;;;;;;5093389;28;20635;-69
2023/06/30 07:12:34;;;;;;;1999.90;999.90;;;16.40;99.90;;;;;;5093050;28;20263;-69
2023/06/30 07:14:59;;;;;;;1999.90;999.90;;;16.50;99.90;;;;;;5093254;28;20399;-70
2023/06/30 07:17:25;;;;;;;1999.90;999.90;;;16.60;99.90;;;;;;5093169;28;20166;-69
2023/06/30 07:19:51;;;;;;;1999.90;999.90;;;16.70;99.90;;;;;;5093021;28;20217;-69
2023/06/30 07:22:16;;;;;;;1999.90;999.90;;;16.60;99.90;;;;;;5093024;28;20200;-70
2023/06/30 07:24:42;;;;;;;1999.90;999.90;;;16.70;99.90;;;;;;5093699;28;20801;-69
2023/06/30 07:27:07;;;;;;;1999.90;999.90;;;16.70;99.90;;;;;;5092498;28;20201;-69
2023/06/30 07:29:33;;;;;;;1999.90;999.90;;;16.80;99.90;;;;;;5093523;28;20171;-69
2023/06/30 07:31:59;;;;;;;1999.90;999.90;;;16.80;99.90;;;;;;5092496;28;20561;-69
2023/06/30 07:34:25;;;;;;;1999.90;999.90;;;16.80;99.90;;;;;;5092675;28;20166;-69
2023/06/30 07:36:51;;;;;;;1999.90;999.90;;;16.80;99.90;;;;;;5093170;28;20185;-69
2023/06/30 07:39:17;;;;;;;1999.90;999.90;;;16.80;99.90;;;;;;5093018;28;20422;-69
2023/06/30 07:41:42;;;;;;;1999.90;999.90;;;16.80;99.90;;;;;;5092369;28;20166;-69
2023/06/30 07:44:11;;;;;;;1999.90;999.90;;;16.80;99.90;;;;;;5091258;28;20420;-70
2023/06/30 07:46:38;;;;;;;1999.90;999.90;;;16.90;99.90;;;;;;5088582;28;20230;-71
2023/06/30 07:49:04;;;;;;;1999.90;999.90;;;16.90;99.90;;;;;;5087389;28;20447;-69
2023/06/30 07:51:30;;;;;;;1999.90;999.90;;;17.00;99.90;;;;;;5088473;28;20447;-69
2023/06/30 07:53:56;;;;;;;1999.90;999.90;;;17.10;99.90;;;;;;5088065;28;20422;-69
2023/06/30 07:56:22;;;;;;;1999.90;999.90;;;17.00;99.90;;;;;;5087654;28;20437;-69
2023/06/30 07:58:48;;;;;;;1999.90;999.90;;;16.90;99.90;;;;;;5088681;28;20849;-69
2023/06/30 08:01:13;;;;;;;1999.90;999.90;;;16.90;99.90;;;;;;5087876;28;20541;-69
2023/06/30 08:03:39;;;;;;;1999.90;999.90;;;17.10;99.90;;;;;;5088477;28;20178;-68
2023/06/30 08:06:05;;;;;;;1999.90;999.90;;;17.20;99.90;;;;;;5087986;28;20282;-71
2023/06/30 08:08:33;;;;;;;1999.90;999.90;;;17.10;99.90;;;;;;5087731;28;20201;-69
2023/06/30 08:10:59;;;;;;;1999.90;999.90;;;17.20;99.90;;;;;;5087732;28;20181;-71
2023/06/30 08:13:25;;;;;;;1999.90;999.90;;;17.40;99.90;;;;;;5087468;28;20504;-72
2023/06/30 08:15:51;;;;;;;1999.90;999.90;;;17.60;99.90;;;;;;5087639;28;20205;-72
2023/06/30 08:18:17;;;;;;;1999.90;999.90;;;17.50;99.90;;;;;;5087672;28;20417;-70
2023/06/30 08:20:42;;;;;;;1999.90;999.90;;;17.60;99.90;;;;;;5087465;28;20815;-70
2023/06/30 08:23:10;;;;;;;1999.90;999.90;;;17.70;99.90;;;;;;5087081;28;20609;-71
2023/06/30 08:25:35;;;;;;;1999.90;999.90;;;17.80;99.90;;;;;;5090217;28;20245;-70
2023/06/30 08:28:01;;;;;;;1999.90;999.90;;;17.50;99.90;;;;;;5091653;28;20427;-69
2023/06/30 08:30:27;;;;;;;1999.90;999.90;;;17.40;99.90;;;;;;5091714;28;20189;-71
2023/06/30 08:32:54;;;;;;;1999.90;999.90;;;17.60;99.90;;;;;;5091539;28;21045;-72
2023/06/30 08:35:20;;;;;;;1999.90;999.90;;;17.90;99.90;;;;;;5091337;28;20508;-70
2023/06/30 08:37:45;;;;;;;1999.90;999.90;;;18.00;99.90;;;;;;5091389;28;21028;-69
2023/06/30 08:40:12;;;;;;;1999.90;999.90;;;18.00;99.90;;;;;;5091558;28;20408;-70
2023/06/30 08:42:40;;;;;;;1999.90;999.90;;;18.00;99.90;;;;;;5090585;28;20217;-69
2023/06/30 08:45:07;;;;;;;1999.90;999.90;;;18.20;99.90;;;;;;5091438;28;20943;-69
2023/06/30 08:47:34;;;;;;;1999.90;999.90;;;18.10;99.90;;;;;;5091533;28;20481;-69
2023/06/30 08:50:01;;;;;;;1999.90;999.90;;;18.00;99.90;;;;;;5088360;28;20426;-69
2023/06/30 08:52:28;;;;;;;1999.90;999.90;;;18.00;99.90;;;;;;5090091;28;20520;-69
2023/06/30 08:54:54;;;;;;;1999.90;999.90;;;18.20;99.90;;;;;;5088321;28;20465;-69
2023/06/30 08:57:20;;;;;;;1999.90;999.90;;;18.20;99.90;;;;;;5087261;28;20457;-69
2023/06/30 08:59:46;;;;;;;1999.90;999.90;;;18.10;99.90;;;;;;5087574;28;20835;-70
2023/06/30 09:02:13;;;;;;;1999.90;999.90;;;18.20;99.90;;;;;;5087895;28;20421;-69
2023/06/30 09:04:40;;;;;;;1999.90;999.90;;;18.30;99.90;;;;;;5087668;28;20420;-69
2023/06/30 09:07:12;;;;;;;1999.90;999.90;;;18.60;99.90;;;;;;5088140;28;20488;-69
2023/06/30 09:09:44;;;;;;;1999.90;999.90;;;18.60;99.90;;;;;;5087798;28;20427;-69
2023/06/30 09:12:10;;;;;;;1999.90;999.90;;;18.60;99.90;;;;;;5088159;28;20469;-70
2023/06/30 09:14:40;;;;;;;1999.90;999.90;;;18.80;99.90;;;;;;5087498;28;20406;-69
2023/06/30 09:17:06;;;;;;;1999.90;999.90;;;18.80;99.90;;;;;;5086828;28;20432;-69
2023/06/30 09:19:32;;;;;;;1999.90;999.90;;;18.70;99.90;;;;;;5088246;28;20422;-69
2023/06/30 09:21:57;;;;;;;1999.90;999.90;;;18.70;99.90;;;;;;5086257;28;20431;-69
2023/06/30 09:24:23;;;;;;;1999.90;999.90;;;18.90;99.90;;;;;;5087262;28;20196;-69
2023/06/30 09:26:52;;;;;;;1999.90;999.90;;;18.90;99.90;;;;;;5087662;28;20206;-69
2023/06/30 09:29:23;;;;;;;1999.90;999.90;;;18.90;99.90;;;;;;5087243;28;20189;-69
2023/06/30 09:31:52;;;;;;;1999.90;999.90;;;19.00;99.90;;;;;;5086325;28;20417;-67
2023/06/30 09:34:21;;;;;;;1999.90;999.90;;;19.30;99.90;;;;;;5088136;28;20781;-69
2023/06/30 09:36:51;;;;;;;1999.90;999.90;;;19.40;99.90;;;;;;5087056;28;20434;-69
2023/06/30 09:39:17;;;;;;;1999.90;999.90;;;19.20;99.90;;;;;;5089521;28;20422;-68
2023/06/30 09:41:44;;;;;;;1999.90;999.90;;;19.00;99.90;;;;;;5090142;28;20415;-68
2023/06/30 09:44:11;;;;;;;1999.90;999.90;;;19.40;99.90;;;;;;5090800;28;20234;-68
2023/06/30 09:46:45;;;;;;;1999.90;999.90;;;19.60;99.90;;;;;;5089806;28;20429;-69
2023/06/30 09:49:22;;;;;;;1999.90;999.90;;;19.40;99.90;;;;;;5090611;28;20428;-69
2023/06/30 09:51:48;;;;;;;1999.90;999.90;;;19.60;99.90;;;;;;5089925;28;20552;-69
2023/06/30 09:54:16;;;;;;;1999.90;999.90;;;19.60;99.90;;;;;;5090650;28;20501;-69
2023/06/30 09:56:42;;;;;;;1999.90;999.90;;;19.90;99.90;;;;;;5090377;28;20190;-69
2023/06/30 09:59:08;;;;;;;1999.90;999.90;;;20.00;99.90;;;;;;5090121;28;20902;-69
2023/06/30 10:01:34;;;;;;;1999.90;999.90;;;20.00;99.90;;;;;;5090140;28;20178;-69
2023/06/30 10:04:00;;;;;;;1999.90;999.90;;;19.70;99.90;;;;;;5090186;28;20178;-70
2023/06/30 10:06:28;;;;;;;1999.90;999.90;;;19.90;99.90;;;;;;5089886;28;20431;-69
2023/06/30 10:08:57;;;;;;;1999.90;999.90;;;20.00;99.90;;;;;;5090279;28;20181;-68
2023/06/30 10:11:23;;;;;;;1999.90;999.90;;;20.20;99.90;;;;;;5090289;28;20428;-69
2023/06/30 10:13:55;;;;;;;1999.90;999.90;;;20.40;99.90;;;;;;5089506;28;20461;-69
2023/06/30 10:16:22;;;;;;;1999.90;999.90;;;20.80;99.90;;;;;;5088274;28;20437;-66
2023/06/30 10:18:50;;;;;;;1999.90;999.90;;;20.90;99.90;;;;;;5089885;28;20438;-70
2023/06/30 10:21:15;;;;;;;1999.90;999.90;;;20.50;99.90;;;;;;5088463;28;20404;-70
2023/06/30 10:23:43;;;;;;;1999.90;999.90;;;20.30;99.90;;;;;;5085863;28;20846;-68
2023/06/30 10:26:12;;;;;;;1999.90;999.90;;;20.30;99.90;;;;;;5089935;28;20229;-69
2023/06/30 10:28:40;;;;;;;1999.90;999.90;;;20.50;99.90;;;;;;5089086;28;20984;-70
2023/06/30 10:31:05;;;;;;;1999.90;999.90;;;21.00;99.90;;;;;;5088165;28;20935;-67
2023/06/30 10:33:31;;;;;;;1999.90;999.90;;;21.10;99.90;;;;;;5089968;28;20453;-67
2023/06/30 10:35:59;;;;;;;1999.90;999.90;;;21.30;98.70;;;;;;5087912;28;20197;-67
2023/06/30 10:38:25;;;;;;;1999.90;999.90;;;21.40;97.80;;;;;;5088656;28;20254;-67
2023/06/30 10:41:19;;;;;;;1999.90;999.90;;;21.70;99.90;;;;;;5088767;28;20419;-72
2023/06/30 10:44:03;;;;;;;1999.90;999.90;;;21.70;95.50;;;;;;5088597;28;20394;-71
2023/06/30 10:46:48;;;;;;;1999.90;999.90;;;21.10;95.60;;;;;;5088708;28;20431;-71
2023/06/30 10:49:17;;;;;;;1999.90;999.90;;;21.10;99.90;;;;;;5088292;28;20419;-70
2023/06/30 10:51:51;;;;;;;1999.90;999.90;;;21.40;99.90;;;;;;5088768;28;20461;-70
2023/06/30 10:54:24;;;;;;;1999.90;999.90;;;21.60;98.70;;;;;;5088831;28;20418;-70
2023/06/30 10:56:51;;;;;;;1999.90;999.90;;;21.60;95.10;;;;;;5088613;28;20851;-71
2023/06/30 10:59:24;;;;;;;1999.90;999.90;;;21.50;95.60;;;;;;5089471;28;20487;-71
2023/06/30 11:02:10;;;;;;;1999.90;999.90;;;21.60;94.40;;;;;;5089324;28;21175;-70
2023/06/30 11:04:37;;;;;;;1999.90;999.90;;;21.50;95.80;;;;;;5089016;28;20418;-72
2023/06/30 11:07:03;;;;;;;1999.90;999.90;;;21.10;94.80;;;;;;5088783;28;20518;-70
2023/06/30 11:09:47;;;;;;;1999.90;999.90;;;21.60;97.40;;;;;;5088346;28;20412;-70
2023/06/30 11:12:16;;;;;;;1999.90;999.90;;;21.70;91.00;;;;;;5088194;28;20541;-70
2023/06/30 11:14:58;;;;;;;1999.90;999.90;;;21.70;96.60;;;;;;5087738;28;20471;-69
2023/06/30 11:17:25;;;;;;;1999.90;999.90;;;21.80;98.90;;;;;;5088066;28;20839;-69
2023/06/30 11:20:13;;;;;;;1999.90;999.90;;;21.80;91.30;;;;;;5089058;28;20409;-70
2023/06/30 11:22:40;;;;;;;1999.90;999.90;;;22.30;96.00;;;;;;5087925;28;20438;-70
2023/06/30 11:25:09;;;;;;;1999.90;999.90;;;22.50;90.40;;;;;;5088909;28;20427;-70
2023/06/30 11:27:35;;;;;;;1999.90;999.90;;;22.50;95.10;;;;;;5089821;28;20762;-70
2023/06/30 11:30:01;;;;;;;1999.90;999.90;;;22.40;95.90;;;;;;5088268;28;20412;-70
2023/06/30 11:32:31;;;;;;;1999.90;999.90;;;22.60;89.20;;;;;;5088509;28;20458;-71
2023/06/30 11:34:58;;;;;;;1999.90;999.90;;;22.90;80.30;;;;;;5089432;28;20405;-70
2023/06/30 11:37:26;;;;;;;1999.90;999.90;;;23.10;77.30;;;;;;5087824;28;20408;-70
2023/06/30 11:39:53;;;;;;;1999.90;999.90;;;23.00;87.60;;;;;;5088558;28;20399;-70
2023/06/30 11:42:19;;;;;;;1999.90;999.90;;;22.60;86.50;;;;;;5088924;28;20431;-70
2023/06/30 11:44:45;;;;;;;1999.90;999.90;;;22.40;83.20;;;;;;5087708;28;20510;-70
2023/06/30 11:47:11;;;;;;;1999.90;999.90;;;22.80;84.60;;;;;;5088057;28;20443;-70
2023/06/30 11:49:36;;;;;;;1999.90;999.90;;;23.30;75.80;;;;;;5089067;28;20193;-70
2023/06/30 11:52:04;;;;;;;1999.90;999.90;;;23.50;69.50;;;;;;5087553;28;20833;-70
2023/06/30 11:54:34;;;;;;;1999.90;999.90;;;23.80;67.90;;;;;;5088240;28;20239;-70
2023/06/30 11:57:00;;;;;;;1999.90;999.90;;;24.00;60.90;;;;;;5088668;28;20428;-70
2023/06/30 11:59:26;;;;;;;1999.90;999.90;;;23.90;67.90;;;;;;5087464;28;20382;-70